sensor_id;sensor_type;location;lat;lon;timestamp;P1;durP1;ratioP1;P2;durP2;ratioP2
43823;SDS011;29470;53.550;9.926;2022-08-03T00:02:29;10.57;;;5.57;;
43823;SDS011;29470;53.550;9.926;2022-08-03T00:07:32;6.93;;;4.70;;
43823;SDS011;29470;53.550;9.926;2022-08-03T00:12:35;6.82;;;5.43;;
43823;SDS011;29470;53.550;9.926;2022-08-03T00:17:40;9.02;;;5.80;;
43823;SDS011;29470;53.550;9.926;2022-08-03T00:22:54;11.05;;;6.45;;
43823;SDS011;29470;53.550;9.926;2022-08-03T00:27:56;12.57;;;6.38;;
43823;SDS011;29470;53.550;9.926;2022-08-03T00:33:01;7.82;;;5.68;;
43823;SDS011;29470;53.550;9.926;2022-08-03T00:38:04;8.82;;;5.97;;
43823;SDS011;29470;53.550;9.926;2022-08-03T00:43:07;7.97;;;5.90;;
43823;SDS011;29470;53.550;9.926;2022-08-03T00:48:12;8.40;;;6.50;;
43823;SDS011;29470;53.550;9.926;2022-08-03T00:53:34;8.50;;;6.45;;
43823;SDS011;29470;53.550;9.926;2022-08-03T00:58:38;6.53;;;5.82;;
43823;SDS011;29470;53.550;9.926;2022-08-03T01:03:42;9.70;;;6.10;;
43823;SDS011;29470;53.550;9.926;2022-08-03T01:08:46;11.20;;;7.10;;
43823;SDS011;29470;53.550;9.926;2022-08-03T01:13:56;7.90;;;5.95;;
43823;SDS011;29470;53.550;9.926;2022-08-03T01:19:26;8.02;;;5.50;;
43823;SDS011;29470;53.550;9.926;2022-08-03T01:24:41;9.13;;;6.40;;
43823;SDS011;29470;53.550;9.926;2022-08-03T01:30:00;7.65;;;6.25;;
43823;SDS011;29470;53.550;9.926;2022-08-03T01:35:08;9.63;;;5.85;;
43823;SDS011;29470;53.550;9.926;2022-08-03T01:40:13;7.45;;;5.93;;
43823;SDS011;29470;53.550;9.926;2022-08-03T01:45:19;6.60;;;5.90;;
43823;SDS011;29470;53.550;9.926;2022-08-03T01:50:25;7.10;;;5.93;;
43823;SDS011;29470;53.550;9.926;2022-08-03T01:55:30;7.45;;;6.18;;
43823;SDS011;29470;53.550;9.926;2022-08-03T02:00:37;8.60;;;6.25;;
43823;SDS011;29470;53.550;9.926;2022-08-03T02:05:42;8.30;;;6.30;;
43823;SDS011;29470;53.550;9.926;2022-08-03T02:10:48;8.02;;;6.78;;
43823;SDS011;29470;53.550;9.926;2022-08-03T02:15:54;7.45;;;6.47;;
43823;SDS011;29470;53.550;9.926;2022-08-03T02:20:59;10.85;;;7.00;;
43823;SDS011;29470;53.550;9.926;2022-08-03T02:26:13;9.07;;;6.63;;
43823;SDS011;29470;53.550;9.926;2022-08-03T02:31:21;10.15;;;6.70;;
43823;SDS011;29470;53.550;9.926;2022-08-03T02:36:27;10.07;;;6.97;;
43823;SDS011;29470;53.550;9.926;2022-08-03T02:41:40;9.05;;;7.57;;
43823;SDS011;29470;53.550;9.926;2022-08-03T02:46:49;8.90;;;7.18;;
43823;SDS011;29470;53.550;9.926;2022-08-03T02:51:56;9.10;;;6.60;;
43823;SDS011;29470;53.550;9.926;2022-08-03T02:57:00;9.07;;;7.40;;
43823;SDS011;29470;53.550;9.926;2022-08-03T03:02:05;8.18;;;6.85;;
43823;SDS011;29470;53.550;9.926;2022-08-03T03:07:10;9.88;;;6.75;;
43823;SDS011;29470;53.550;9.926;2022-08-03T03:12:15;8.32;;;6.93;;
43823;SDS011;29470;53.550;9.926;2022-08-03T03:17:20;8.43;;;6.88;;
43823;SDS011;29470;53.550;9.926;2022-08-03T03:22:25;8.55;;;7.43;;
43823;SDS011;29470;53.550;9.926;2022-08-03T03:27:28;10.60;;;7.65;;
43823;SDS011;29470;53.550;9.926;2022-08-03T03:32:34;10.00;;;7.63;;
43823;SDS011;29470;53.550;9.926;2022-08-03T03:37:37;9.93;;;7.82;;
43823;SDS011;29470;53.550;9.926;2022-08-03T03:42:40;9.68;;;7.60;;
43823;SDS011;29470;53.550;9.926;2022-08-03T03:47:45;8.93;;;6.90;;
43823;SDS011;29470;53.550;9.926;2022-08-03T03:52:48;11.25;;;7.47;;
43823;SDS011;29470;53.550;9.926;2022-08-03T03:57:51;10.57;;;7.47;;
43823;SDS011;29470;53.550;9.926;2022-08-03T04:02:55;9.38;;;7.82;;
43823;SDS011;29470;53.550;9.926;2022-08-03T04:07:59;8.82;;;7.88;;
43823;SDS011;29470;53.550;9.926;2022-08-03T04:13:22;12.57;;;9.18;;
43823;SDS011;29470;53.550;9.926;2022-08-03T04:18:30;10.57;;;8.05;;
43823;SDS011;29470;53.550;9.926;2022-08-03T04:23:36;10.60;;;8.90;;
43823;SDS011;29470;53.550;9.926;2022-08-03T04:28:43;12.77;;;9.18;;
43823;SDS011;29470;53.550;9.926;2022-08-03T04:33:49;11.40;;;8.73;;
43823;SDS011;29470;53.550;9.926;2022-08-03T04:38:59;11.13;;;9.05;;
43823;SDS011;29470;53.550;9.926;2022-08-03T04:44:03;10.65;;;8.40;;
43823;SDS011;29470;53.550;9.926;2022-08-03T04:49:09;15.40;;;9.20;;
43823;SDS011;29470;53.550;9.926;2022-08-03T04:54:13;12.88;;;8.98;;
43823;SDS011;29470;53.550;9.926;2022-08-03T04:59:16;15.80;;;8.55;;
43823;SDS011;29470;53.550;9.926;2022-08-03T05:04:20;12.43;;;8.45;;
43823;SDS011;29470;53.550;9.926;2022-08-03T05:09:23;16.33;;;8.60;;
43823;SDS011;29470;53.550;9.926;2022-08-03T05:14:46;12.30;;;8.80;;
43823;SDS011;29470;53.550;9.926;2022-08-03T05:19:50;11.75;;;7.55;;
43823;SDS011;29470;53.550;9.926;2022-08-03T05:24:53;10.02;;;7.72;;
43823;SDS011;29470;53.550;9.926;2022-08-03T05:29:56;9.68;;;8.13;;
43823;SDS011;29470;53.550;9.926;2022-08-03T05:35:20;11.10;;;8.63;;
43823;SDS011;29470;53.550;9.926;2022-08-03T05:40:45;10.40;;;8.13;;
43823;SDS011;29470;53.550;9.926;2022-08-03T05:45:57;10.77;;;8.15;;
43823;SDS011;29470;53.550;9.926;2022-08-03T05:51:14;12.80;;;8.18;;
43823;SDS011;29470;53.550;9.926;2022-08-03T05:56:20;10.18;;;7.90;;
43823;SDS011;29470;53.550;9.926;2022-08-03T06:01:23;17.55;;;8.40;;
43823;SDS011;29470;53.550;9.926;2022-08-03T06:06:28;12.60;;;8.38;;
43823;SDS011;29470;53.550;9.926;2022-08-03T06:11:32;14.93;;;7.07;;
43823;SDS011;29470;53.550;9.926;2022-08-03T06:16:35;10.70;;;6.20;;
43823;SDS011;29470;53.550;9.926;2022-08-03T06:21:40;9.75;;;6.65;;
43823;SDS011;29470;53.550;9.926;2022-08-03T06:26:45;9.07;;;5.80;;
43823;SDS011;29470;53.550;9.926;2022-08-03T06:31:48;13.82;;;5.25;;
43823;SDS011;29470;53.550;9.926;2022-08-03T06:36:53;11.27;;;5.30;;
43823;SDS011;29470;53.550;9.926;2022-08-03T06:42:02;7.90;;;4.40;;
43823;SDS011;29470;53.550;9.926;2022-08-03T06:47:06;11.20;;;4.07;;
43823;SDS011;29470;53.550;9.926;2022-08-03T06:52:11;7.03;;;4.28;;
43823;SDS011;29470;53.550;9.926;2022-08-03T06:57:34;8.20;;;4.60;;
43823;SDS011;29470;53.550;9.926;2022-08-03T07:02:37;6.65;;;3.80;;
43823;SDS011;29470;53.550;9.926;2022-08-03T07:07:42;5.75;;;3.58;;
43823;SDS011;29470;53.550;9.926;2022-08-03T07:12:45;6.65;;;3.08;;
43823;SDS011;29470;53.550;9.926;2022-08-03T07:17:57;6.10;;;3.03;;
43823;SDS011;29470;53.550;9.926;2022-08-03T07:23:01;5.28;;;2.50;;
43823;SDS011;29470;53.550;9.926;2022-08-03T07:33:08;5.00;;;2.35;;
43823;SDS011;29470;53.550;9.926;2022-08-03T07:38:13;3.53;;;2.20;;
43823;SDS011;29470;53.550;9.926;2022-08-03T07:43:16;4.90;;;2.20;;
43823;SDS011;29470;53.550;9.926;2022-08-03T07:48:19;3.55;;;1.92;;
43823;SDS011;29470;53.550;9.926;2022-08-03T07:53:23;4.38;;;2.75;;
43823;SDS011;29470;53.550;9.926;2022-08-03T08:03:29;2.88;;;2.40;;
43823;SDS011;29470;53.550;9.926;2022-08-03T08:08:53;5.75;;;4.05;;
43823;SDS011;29470;53.550;9.926;2022-08-03T08:13:59;5.28;;;3.20;;
43823;SDS011;29470;53.550;9.926;2022-08-03T08:19:04;5.88;;;2.92;;
43823;SDS011;29470;53.550;9.926;2022-08-03T08:24:08;3.92;;;2.20;;
43823;SDS011;29470;53.550;9.926;2022-08-03T08:29:19;5.85;;;3.60;;
43823;SDS011;29470;53.550;9.926;2022-08-03T08:34:23;6.97;;;4.43;;
43823;SDS011;29470;53.550;9.926;2022-08-03T08:39:27;4.22;;;3.38;;
43823;SDS011;29470;53.550;9.926;2022-08-03T08:44:30;4.78;;;2.70;;
43823;SDS011;29470;53.550;9.926;2022-08-03T08:49:33;7.15;;;2.70;;
43823;SDS011;29470;53.550;9.926;2022-08-03T08:54:40;4.82;;;2.90;;
43823;SDS011;29470;53.550;9.926;2022-08-03T08:59:43;5.33;;;2.67;;
43823;SDS011;29470;53.550;9.926;2022-08-03T09:04:49;6.03;;;2.53;;
43823;SDS011;29470;53.550;9.926;2022-08-03T09:09:56;6.63;;;2.85;;
43823;SDS011;29470;53.550;9.926;2022-08-03T09:15:17;3.28;;;2.20;;
43823;SDS011;29470;53.550;9.926;2022-08-03T09:20:22;4.88;;;2.50;;
43823;SDS011;29470;53.550;9.926;2022-08-03T09:25:28;4.57;;;2.10;;
43823;SDS011;29470;53.550;9.926;2022-08-03T09:30:32;4.03;;;2.03;;
43823;SDS011;29470;53.550;9.926;2022-08-03T09:35:39;5.22;;;2.28;;
43823;SDS011;29470;53.550;9.926;2022-08-03T09:40:59;7.57;;;2.08;;
43823;SDS011;29470;53.550;9.926;2022-08-03T09:46:04;5.65;;;2.40;;
43823;SDS011;29470;53.550;9.926;2022-08-03T09:51:08;4.95;;;2.38;;
43823;SDS011;29470;53.550;9.926;2022-08-03T09:56:42;3.85;;;1.80;;
43823;SDS011;29470;53.550;9.926;2022-08-03T10:01:45;3.75;;;1.70;;
43823;SDS011;29470;53.550;9.926;2022-08-03T10:07:01;7.22;;;2.47;;
43823;SDS011;29470;53.550;9.926;2022-08-03T10:12:07;6.40;;;1.90;;
43823;SDS011;29470;53.550;9.926;2022-08-03T10:17:11;4.70;;;2.30;;
43823;SDS011;29470;53.550;9.926;2022-08-03T10:22:14;6.85;;;2.03;;
43823;SDS011;29470;53.550;9.926;2022-08-03T10:27:22;4.47;;;2.08;;
43823;SDS011;29470;53.550;9.926;2022-08-03T10:32:27;3.78;;;1.77;;
43823;SDS011;29470;53.550;9.926;2022-08-03T10:37:33;4.10;;;1.60;;
43823;SDS011;29470;53.550;9.926;2022-08-03T10:42:58;3.63;;;1.98;;
43823;SDS011;29470;53.550;9.926;2022-08-03T10:48:09;3.03;;;1.83;;
43823;SDS011;29470;53.550;9.926;2022-08-03T10:53:12;4.10;;;2.15;;
43823;SDS011;29470;53.550;9.926;2022-08-03T11:04:13;6.38;;;2.28;;
43823;SDS011;29470;53.550;9.926;2022-08-03T11:09:18;3.15;;;2.10;;
43823;SDS011;29470;53.550;9.926;2022-08-03T11:14:22;4.68;;;1.80;;
43823;SDS011;29470;53.550;9.926;2022-08-03T11:19:25;4.95;;;1.88;;
43823;SDS011;29470;53.550;9.926;2022-08-03T11:24:58;4.57;;;1.77;;
43823;SDS011;29470;53.550;9.926;2022-08-03T11:30:04;5.57;;;1.75;;
43823;SDS011;29470;53.550;9.926;2022-08-03T11:40:27;4.00;;;2.00;;
43823;SDS011;29470;53.550;9.926;2022-08-03T11:45:36;4.95;;;1.83;;
43823;SDS011;29470;53.550;9.926;2022-08-03T11:50:39;5.68;;;2.30;;
43823;SDS011;29470;53.550;9.926;2022-08-03T11:55:45;5.17;;;2.10;;
43823;SDS011;29470;53.550;9.926;2022-08-03T12:00:51;5.35;;;1.73;;
43823;SDS011;29470;53.550;9.926;2022-08-03T12:05:54;6.00;;;1.70;;
43823;SDS011;29470;53.550;9.926;2022-08-03T12:10:58;6.50;;;1.70;;
43823;SDS011;29470;53.550;9.926;2022-08-03T12:16:03;4.47;;;2.08;;
43823;SDS011;29470;53.550;9.926;2022-08-03T12:21:07;3.55;;;1.70;;
43823;SDS011;29470;53.550;9.926;2022-08-03T12:26:11;6.22;;;1.77;;
43823;SDS011;29470;53.550;9.926;2022-08-03T12:31:15;6.07;;;1.98;;
43823;SDS011;29470;53.550;9.926;2022-08-03T12:36:18;4.72;;;2.03;;
43823;SDS011;29470;53.550;9.926;2022-08-03T12:41:26;5.03;;;1.98;;
43823;SDS011;29470;53.550;9.926;2022-08-03T12:46:32;5.35;;;2.10;;
43823;SDS011;29470;53.550;9.926;2022-08-03T12:51:37;5.45;;;1.98;;
43823;SDS011;29470;53.550;9.926;2022-08-03T12:56:57;8.52;;;2.20;;
43823;SDS011;29470;53.550;9.926;2022-08-03T13:02:03;4.45;;;1.80;;
43823;SDS011;29470;53.550;9.926;2022-08-03T13:07:10;4.07;;;2.22;;
43823;SDS011;29470;53.550;9.926;2022-08-03T13:12:15;4.40;;;1.75;;
43823;SDS011;29470;53.550;9.926;2022-08-03T13:17:20;6.88;;;1.85;;
43823;SDS011;29470;53.550;9.926;2022-08-03T13:22:23;6.25;;;2.17;;
43823;SDS011;29470;53.550;9.926;2022-08-03T13:27:29;8.87;;;1.90;;
43823;SDS011;29470;53.550;9.926;2022-08-03T13:32:54;6.13;;;2.10;;
43823;SDS011;29470;53.550;9.926;2022-08-03T13:37:59;3.07;;;2.03;;
43823;SDS011;29470;53.550;9.926;2022-08-03T13:43:02;6.32;;;2.50;;
43823;SDS011;29470;53.550;9.926;2022-08-03T13:48:06;2.67;;;1.50;;
43823;SDS011;29470;53.550;9.926;2022-08-03T13:53:09;5.95;;;1.85;;
43823;SDS011;29470;53.550;9.926;2022-08-03T13:58:12;5.53;;;1.88;;
43823;SDS011;29470;53.550;9.926;2022-08-03T14:03:17;5.20;;;1.90;;
43823;SDS011;29470;53.550;9.926;2022-08-03T14:08:20;4.15;;;2.00;;
43823;SDS011;29470;53.550;9.926;2022-08-03T14:13:23;6.57;;;1.83;;
43823;SDS011;29470;53.550;9.926;2022-08-03T14:18:27;5.30;;;1.85;;
43823;SDS011;29470;53.550;9.926;2022-08-03T14:23:34;5.85;;;2.35;;
43823;SDS011;29470;53.550;9.926;2022-08-03T14:28:38;4.90;;;1.80;;
43823;SDS011;29470;53.550;9.926;2022-08-03T14:33:43;4.00;;;1.90;;
43823;SDS011;29470;53.550;9.926;2022-08-03T14:38:46;4.65;;;1.88;;
43823;SDS011;29470;53.550;9.926;2022-08-03T14:43:49;4.07;;;2.00;;
43823;SDS011;29470;53.550;9.926;2022-08-03T14:49:03;5.35;;;2.05;;
43823;SDS011;29470;53.550;9.926;2022-08-03T14:54:26;7.00;;;2.50;;
43823;SDS011;29470;53.550;9.926;2022-08-03T14:59:31;6.55;;;2.22;;
43823;SDS011;29470;53.550;9.926;2022-08-03T15:04:55;3.63;;;1.92;;
43823;SDS011;29470;53.550;9.926;2022-08-03T15:09:58;7.15;;;2.50;;
43823;SDS011;29470;53.550;9.926;2022-08-03T15:15:02;4.65;;;2.28;;
43823;SDS011;29470;53.550;9.926;2022-08-03T15:20:08;6.45;;;2.60;;
43823;SDS011;29470;53.550;9.926;2022-08-03T15:25:31;5.95;;;2.45;;
43823;SDS011;29470;53.550;9.926;2022-08-03T15:30:54;6.20;;;2.10;;
43823;SDS011;29470;53.550;9.926;2022-08-03T15:35:59;3.88;;;1.95;;
43823;SDS011;29470;53.550;9.926;2022-08-03T15:41:01;4.00;;;2.05;;
43823;SDS011;29470;53.550;9.926;2022-08-03T15:46:04;4.78;;;1.63;;
43823;SDS011;29470;53.550;9.926;2022-08-03T15:51:29;5.22;;;2.17;;
43823;SDS011;29470;53.550;9.926;2022-08-03T15:56:32;5.10;;;2.08;;
43823;SDS011;29470;53.550;9.926;2022-08-03T16:01:35;5.43;;;2.22;;
43823;SDS011;29470;53.550;9.926;2022-08-03T16:06:39;6.10;;;1.95;;
43823;SDS011;29470;53.550;9.926;2022-08-03T16:11:42;3.95;;;1.80;;
43823;SDS011;29470;53.550;9.926;2022-08-03T16:16:45;6.10;;;2.85;;
43823;SDS011;29470;53.550;9.926;2022-08-03T16:21:49;4.72;;;1.92;;
43823;SDS011;29470;53.550;9.926;2022-08-03T16:26:52;6.32;;;2.30;;
43823;SDS011;29470;53.550;9.926;2022-08-03T16:31:55;5.43;;;1.88;;
43823;SDS011;29470;53.550;9.926;2022-08-03T16:37:00;8.32;;;2.80;;
43823;SDS011;29470;53.550;9.926;2022-08-03T16:42:23;4.20;;;2.20;;
43823;SDS011;29470;53.550;9.926;2022-08-03T16:47:26;7.03;;;2.17;;
43823;SDS011;29470;53.550;9.926;2022-08-03T16:52:33;3.00;;;1.85;;
43823;SDS011;29470;53.550;9.926;2022-08-03T16:57:37;6.00;;;2.30;;
43823;SDS011;29470;53.550;9.926;2022-08-03T17:03:01;6.22;;;2.47;;
43823;SDS011;29470;53.550;9.926;2022-08-03T17:08:25;7.38;;;2.33;;
43823;SDS011;29470;53.550;9.926;2022-08-03T17:13:28;5.35;;;2.13;;
43823;SDS011;29470;53.550;9.926;2022-08-03T17:18:42;7.38;;;2.60;;
43823;SDS011;29470;53.550;9.926;2022-08-03T17:23:56;4.75;;;2.13;;
43823;SDS011;29470;53.550;9.926;2022-08-03T17:29:14;6.03;;;2.17;;
43823;SDS011;29470;53.550;9.926;2022-08-03T17:34:25;7.60;;;2.17;;
43823;SDS011;29470;53.550;9.926;2022-08-03T17:39:30;7.07;;;2.20;;
43823;SDS011;29470;53.550;9.926;2022-08-03T17:44:54;6.85;;;2.40;;
43823;SDS011;29470;53.550;9.926;2022-08-03T17:49:58;5.88;;;2.10;;
43823;SDS011;29470;53.550;9.926;2022-08-03T17:55:05;6.38;;;2.42;;
43823;SDS011;29470;53.550;9.926;2022-08-03T18:00:30;5.82;;;2.40;;
43823;SDS011;29470;53.550;9.926;2022-08-03T18:05:53;5.20;;;2.10;;
43823;SDS011;29470;53.550;9.926;2022-08-03T18:11:14;4.80;;;2.20;;
43823;SDS011;29470;53.550;9.926;2022-08-03T18:16:23;9.20;;;3.13;;
43823;SDS011;29470;53.550;9.926;2022-08-03T18:21:34;7.40;;;2.88;;
43823;SDS011;29470;53.550;9.926;2022-08-03T18:26:59;9.85;;;2.97;;
43823;SDS011;29470;53.550;9.926;2022-08-03T18:32:03;8.68;;;3.28;;
43823;SDS011;29470;53.550;9.926;2022-08-03T18:37:17;8.30;;;4.00;;
43823;SDS011;29470;53.550;9.926;2022-08-03T18:42:27;11.23;;;4.43;;
43823;SDS011;29470;53.550;9.926;2022-08-03T18:47:40;8.88;;;2.50;;
43823;SDS011;29470;53.550;9.926;2022-08-03T18:52:54;8.55;;;2.60;;
43823;SDS011;29470;53.550;9.926;2022-08-03T18:58:21;6.28;;;2.42;;
43823;SDS011;29470;53.550;9.926;2022-08-03T19:03:32;9.13;;;2.67;;
43823;SDS011;29470;53.550;9.926;2022-08-03T19:08:44;7.97;;;2.60;;
43823;SDS011;29470;53.550;9.926;2022-08-03T19:13:52;10.20;;;2.87;;
43823;SDS011;29470;53.550;9.926;2022-08-03T19:19:00;7.63;;;2.95;;
43823;SDS011;29470;53.550;9.926;2022-08-03T19:24:04;10.63;;;3.28;;
43823;SDS011;29470;53.550;9.926;2022-08-03T19:29:12;9.38;;;2.63;;
43823;SDS011;29470;53.550;9.926;2022-08-03T19:34:18;10.70;;;3.60;;
43823;SDS011;29470;53.550;9.926;2022-08-03T19:39:24;9.30;;;2.78;;
43823;SDS011;29470;53.550;9.926;2022-08-03T19:44:29;10.05;;;2.60;;
43823;SDS011;29470;53.550;9.926;2022-08-03T19:54:58;10.35;;;3.25;;
43823;SDS011;29470;53.550;9.926;2022-08-03T20:00:06;12.07;;;3.30;;
43823;SDS011;29470;53.550;9.926;2022-08-03T20:05:14;10.35;;;3.33;;
43823;SDS011;29470;53.550;9.926;2022-08-03T20:10:18;8.23;;;2.90;;
43823;SDS011;29470;53.550;9.926;2022-08-03T20:15:23;9.48;;;3.42;;
43823;SDS011;29470;53.550;9.926;2022-08-03T20:20:32;9.77;;;2.90;;
43823;SDS011;29470;53.550;9.926;2022-08-03T20:25:38;10.20;;;3.25;;
43823;SDS011;29470;53.550;9.926;2022-08-03T20:30:59;11.90;;;3.42;;
43823;SDS011;29470;53.550;9.926;2022-08-03T20:36:02;12.13;;;3.92;;
43823;SDS011;29470;53.550;9.926;2022-08-03T20:41:06;11.70;;;3.08;;
43823;SDS011;29470;53.550;9.926;2022-08-03T20:46:10;9.15;;;3.50;;
43823;SDS011;29470;53.550;9.926;2022-08-03T20:51:35;10.27;;;3.10;;
43823;SDS011;29470;53.550;9.926;2022-08-03T20:56:53;9.27;;;3.33;;
43823;SDS011;29470;53.550;9.926;2022-08-03T21:01:59;8.02;;;3.63;;
43823;SDS011;29470;53.550;9.926;2022-08-03T21:07:02;9.18;;;3.42;;
43823;SDS011;29470;53.550;9.926;2022-08-03T21:12:18;8.82;;;3.22;;
43823;SDS011;29470;53.550;9.926;2022-08-03T21:17:32;10.50;;;3.55;;
43823;SDS011;29470;53.550;9.926;2022-08-03T21:22:42;10.00;;;3.53;;
43823;SDS011;29470;53.550;9.926;2022-08-03T21:27:49;10.02;;;3.30;;
43823;SDS011;29470;53.550;9.926;2022-08-03T21:32:55;10.23;;;3.60;;
43823;SDS011;29470;53.550;9.926;2022-08-03T21:37:59;9.65;;;3.47;;
43823;SDS011;29470;53.550;9.926;2022-08-03T21:43:30;7.90;;;3.80;;
43823;SDS011;29470;53.550;9.926;2022-08-03T21:48:35;10.35;;;3.58;;
43823;SDS011;29470;53.550;9.926;2022-08-03T21:53:39;9.83;;;3.60;;
43823;SDS011;29470;53.550;9.926;2022-08-03T21:59:05;11.05;;;3.92;;
43823;SDS011;29470;53.550;9.926;2022-08-03T22:04:10;10.70;;;4.10;;
43823;SDS011;29470;53.550;9.926;2022-08-03T22:09:37;9.63;;;4.20;;
43823;SDS011;29470;53.550;9.926;2022-08-03T22:14:52;9.98;;;3.65;;
43823;SDS011;29470;53.550;9.926;2022-08-03T22:20:05;10.18;;;3.67;;
43823;SDS011;29470;53.550;9.926;2022-08-03T22:25:11;7.38;;;3.80;;
43823;SDS011;29470;53.550;9.926;2022-08-03T22:30:16;6.80;;;3.88;;
43823;SDS011;29470;53.550;9.926;2022-08-03T22:35:22;11.30;;;4.07;;
43823;SDS011;29470;53.550;9.926;2022-08-03T22:40:26;9.57;;;3.80;;
43823;SDS011;29470;53.550;9.926;2022-08-03T22:45:30;12.00;;;4.55;;
43823;SDS011;29470;53.550;9.926;2022-08-03T22:50:54;9.18;;;4.07;;
43823;SDS011;29470;53.550;9.926;2022-08-03T22:55:58;11.25;;;4.15;;
43823;SDS011;29470;53.550;9.926;2022-08-03T23:01:03;10.07;;;4.50;;
43823;SDS011;29470;53.550;9.926;2022-08-03T23:06:09;10.82;;;4.55;;
43823;SDS011;29470;53.550;9.926;2022-08-03T23:11:12;8.45;;;4.90;;
43823;SDS011;29470;53.550;9.926;2022-08-03T23:16:19;9.77;;;4.60;;
43823;SDS011;29470;53.550;9.926;2022-08-03T23:21:31;13.40;;;5.18;;
43823;SDS011;29470;53.550;9.926;2022-08-03T23:26:55;13.07;;;5.50;;
43823;SDS011;29470;53.550;9.926;2022-08-03T23:31:59;9.00;;;5.15;;
43823;SDS011;29470;53.550;9.926;2022-08-03T23:37:04;10.75;;;5.47;;
43823;SDS011;29470;53.550;9.926;2022-08-03T23:42:07;13.50;;;5.90;;
43823;SDS011;29470;53.550;9.926;2022-08-03T23:47:12;9.82;;;5.47;;
43823;SDS011;29470;53.550;9.926;2022-08-03T23:52:21;9.77;;;5.65;;
43823;SDS011;29470;53.550;9.926;2022-08-03T23:57:33;8.40;;;6.05;;
